createdAt,value
2019-03-18T00:01:01.426Z,0.0
2019-03-18T00:16:01.445Z,0.0
2019-03-18T00:31:01.497Z,0.0
2019-03-18T00:46:01.511Z,0.0
2019-03-18T01:01:01.499Z,0.1
2019-03-18T01:06:01.568Z,0.1
2019-03-18T01:16:01.454Z,0.0
2019-03-18T01:21:01.449Z,0.0
2019-03-18T01:36:01.530Z,0.1
2019-03-18T01:41:01.515Z,0.1
2019-03-18T01:56:01.599Z,0.0
2019-03-18T02:07:01.497Z,0.0
2019-03-18T02:22:01.439Z,0.1
2019-03-18T02:32:01.473Z,0.1
2019-03-18T02:37:01.413Z,0.0
2019-03-18T02:42:01.440Z,0.0
2019-03-18T02:57:01.469Z,0.0
2019-03-18T03:02:01.436Z,0.0
2019-03-18T03:17:01.575Z,0.0
2019-03-18T03:22:01.389Z,0.1
2019-03-18T03:32:01.570Z,0.0
2019-03-18T03:37:01.445Z,0.0
2019-03-18T03:42:01.407Z,0.0
2019-03-18T03:47:01.534Z,0.0
2019-03-18T03:52:01.414Z,0.0
2019-03-18T03:57:01.508Z,0.1
2019-03-18T04:02:01.443Z,0.1
2019-03-18T04:07:01.483Z,0.1
2019-03-18T04:17:03.278Z,0.0
2019-03-18T04:22:01.453Z,0.0
2019-03-18T04:32:01.437Z,0.1
2019-03-18T04:47:14.898Z,0.1
2019-03-18T05:02:01.414Z,0.1
2019-03-18T05:07:01.517Z,0.0
2019-03-18T05:17:01.512Z,0.0
2019-03-18T05:23:01.573Z,0.1
2019-03-18T05:28:01.935Z,0.1
2019-03-18T05:33:01.506Z,0.1
2019-03-18T05:38:01.449Z,0.1
2019-03-18T05:43:01.504Z,0.1
2019-03-18T05:48:01.476Z,0.1
2019-03-18T05:53:01.572Z,0.0
2019-03-18T05:58:01.392Z,0.0
2019-03-18T06:03:01.528Z,0.0
2019-03-18T06:13:01.467Z,0.0
2019-03-18T06:28:01.492Z,0.0
2019-03-18T06:33:01.432Z,0.1
2019-03-18T06:38:01.443Z,0.1
2019-03-18T06:43:01.488Z,0.1
2019-03-18T06:48:05.874Z,0.1
2019-03-18T06:53:01.420Z,0.0
2019-03-18T07:03:01.559Z,0.1
2019-03-18T07:08:03.366Z,0.1
2019-03-18T07:13:01.476Z,0.1
2019-03-18T07:18:01.571Z,0.1
2019-03-18T07:23:01.510Z,0.2
2019-03-18T07:28:01.450Z,0.2
2019-03-18T07:38:01.541Z,0.1
2019-03-18T07:48:01.433Z,0.1
2019-03-18T07:53:01.795Z,0.1
2019-03-18T07:58:01.441Z,0.2
2019-03-18T08:03:03.943Z,0.1
2019-03-18T08:08:01.416Z,0.2
2019-03-18T08:13:01.437Z,0.2
2019-03-18T08:23:01.422Z,0.2
2019-03-18T08:28:01.440Z,0.3
2019-03-18T08:33:01.498Z,0.2
2019-03-18T08:43:01.459Z,0.1
2019-03-18T08:49:01.433Z,0.1
2019-03-18T08:54:01.442Z,0.1
2019-03-18T08:59:06.429Z,0.2
2019-03-18T09:04:01.495Z,0.2
2019-03-18T09:19:09.686Z,0.1
2019-03-18T09:24:02.476Z,0.1
2019-03-18T09:29:01.454Z,0.1
2019-03-18T09:34:01.503Z,0.1
2019-03-18T09:39:01.467Z,0.4
2019-03-18T09:44:01.575Z,0.5
2019-03-18T09:49:01.437Z,0.6
2019-03-18T09:54:01.423Z,0.6
2019-03-18T09:59:01.538Z,0.5
2019-03-18T10:04:01.564Z,0.3
2019-03-18T10:09:01.463Z,0.2
2019-03-18T10:14:01.508Z,0.2
2019-03-18T10:19:01.451Z,0.2
2019-03-18T10:29:01.536Z,0.3
2019-03-18T10:34:01.665Z,0.3
2019-03-18T10:49:01.545Z,0.3
2019-03-18T10:54:01.446Z,0.5
2019-03-18T10:59:01.487Z,0.5
2019-03-18T11:04:01.616Z,0.5
2019-03-18T11:09:01.454Z,0.7
2019-03-18T11:14:01.440Z,0.5
2019-03-18T11:19:01.476Z,0.6
2019-03-18T11:24:01.599Z,0.6
2019-03-18T11:34:01.498Z,0.6
2019-03-18T11:39:01.450Z,0.4
2019-03-18T11:44:01.574Z,0.3
2019-03-18T11:49:01.420Z,0.2
2019-03-18T11:54:01.541Z,0.2
2019-03-18T11:59:01.459Z,0.1
2019-03-18T12:04:01.502Z,0.1
2019-03-18T12:09:01.416Z,0.1
2019-03-18T12:14:01.474Z,0.1
2019-03-18T12:19:01.445Z,0.4
2019-03-18T12:24:01.417Z,0.4
2019-03-18T12:29:01.444Z,0.5
2019-03-18T12:34:01.606Z,0.4
2019-03-18T12:39:01.414Z,0.4
2019-03-18T12:44:01.455Z,0.5
2019-03-18T12:49:01.439Z,0.3
2019-03-18T12:59:01.592Z,0.7
2019-03-18T13:04:01.416Z,0.7
2019-03-18T13:09:01.453Z,0.6
2019-03-18T13:14:01.601Z,0.8
2019-03-18T13:19:01.447Z,0.9
2019-03-18T13:34:01.977Z,0.9
2019-03-18T13:49:01.525Z,0.8
2019-03-18T13:59:01.501Z,0.7
2019-03-18T14:04:06.570Z,0.8
2019-03-18T14:09:01.453Z,0.6
2019-03-18T14:14:01.456Z,0.6
2019-03-18T14:19:01.575Z,0.4
2019-03-18T14:24:01.504Z,0.4
2019-03-18T14:29:01.504Z,0.5
2019-03-18T14:34:01.411Z,0.5
2019-03-18T14:44:01.529Z,0.6
2019-03-18T14:49:01.462Z,0.7
2019-03-18T14:54:01.509Z,0.7
2019-03-18T14:59:01.644Z,0.7
2019-03-18T15:04:01.452Z,0.7
2019-03-18T15:09:01.448Z,0.7
2019-03-18T15:14:02.077Z,0.6
2019-03-18T15:19:01.454Z,0.6
2019-03-18T15:29:01.504Z,0.5
2019-03-18T15:34:01.458Z,0.4
2019-03-18T15:39:01.435Z,0.4
2019-03-18T15:44:01.622Z,0.4
2019-03-18T15:49:01.520Z,0.4
2019-03-18T15:59:01.561Z,0.6
2019-03-18T16:04:01.572Z,0.7
2019-03-18T16:09:01.396Z,0.7
2019-03-18T16:14:01.483Z,0.9
2019-03-18T16:19:02.443Z,0.9
2019-03-18T16:24:01.413Z,0.9
2019-03-18T16:29:01.402Z,0.7
2019-03-18T16:34:01.502Z,0.8
2019-03-18T16:39:01.414Z,0.7
2019-03-18T16:44:01.450Z,0.8
2019-03-18T16:49:01.396Z,0.9
2019-03-18T16:54:01.508Z,1.0
2019-03-18T16:59:01.418Z,0.9
2019-03-18T17:04:01.448Z,0.8
2019-03-18T17:09:01.437Z,0.9
2019-03-18T17:14:01.405Z,0.9
2019-03-18T17:19:01.440Z,0.9
2019-03-18T17:24:01.562Z,1.1
2019-03-18T17:29:01.425Z,1.2
2019-03-18T17:34:01.466Z,1.0
2019-03-18T17:39:01.448Z,0.9
2019-03-18T17:49:01.520Z,0.7
2019-03-18T17:59:01.501Z,0.6
2019-03-18T18:09:01.468Z,0.6
2019-03-18T18:14:01.439Z,0.6
2019-03-18T18:19:01.413Z,0.5
2019-03-18T18:24:01.540Z,0.5
2019-03-18T18:29:01.409Z,0.6
2019-03-18T18:39:01.512Z,0.6
2019-03-18T18:44:01.526Z,0.5
2019-03-18T18:49:01.378Z,0.5
2019-03-18T18:54:01.517Z,0.5
2019-03-18T18:59:01.414Z,0.6
2019-03-18T19:04:01.476Z,0.6
2019-03-18T19:09:01.592Z,0.6
2019-03-18T19:14:01.496Z,1.0
2019-03-18T19:19:01.413Z,1.0
2019-03-18T19:24:01.495Z,0.8
2019-03-18T19:29:01.409Z,0.8
2019-03-18T19:34:01.543Z,0.8
2019-03-18T19:39:01.409Z,0.5
2019-03-18T19:44:01.726Z,0.4
2019-03-18T19:49:01.430Z,0.4
2019-03-18T19:54:01.488Z,0.5
2019-03-18T19:59:01.443Z,0.7
2019-03-18T20:04:01.497Z,0.8
2019-03-18T20:09:01.632Z,0.8
2019-03-18T20:14:01.447Z,0.8
2019-03-18T20:19:01.418Z,0.7
2019-03-18T20:24:04.793Z,0.4
2019-03-18T20:29:02.458Z,0.4
2019-03-18T20:34:01.616Z,0.5
2019-03-18T20:44:01.408Z,0.6
2019-03-18T20:49:01.422Z,0.7
2019-03-18T20:54:12.662Z,0.6
2019-03-18T20:59:01.460Z,0.6
2019-03-18T21:09:01.569Z,0.5
2019-03-18T21:19:01.511Z,0.5
2019-03-18T21:29:01.487Z,0.5
2019-03-18T21:34:01.495Z,0.5
2019-03-18T21:39:01.438Z,0.5
2019-03-18T21:44:01.504Z,0.5
2019-03-18T21:49:01.440Z,0.5
2019-03-18T21:54:01.577Z,0.4
2019-03-18T21:59:02.353Z,0.4
2019-03-18T22:04:01.541Z,0.4
2019-03-18T22:09:01.419Z,0.4
2019-03-18T22:14:01.515Z,0.5
2019-03-18T22:19:01.400Z,0.6
2019-03-18T22:24:01.501Z,0.5
2019-03-18T22:29:01.406Z,0.6
2019-03-18T22:34:01.462Z,0.6
2019-03-18T22:39:01.448Z,0.4
2019-03-18T22:44:01.632Z,0.3
2019-03-18T22:54:01.669Z,0.3
2019-03-18T22:59:01.413Z,0.3
2019-03-18T23:09:01.516Z,0.3
2019-03-18T23:14:01.476Z,0.1
2019-03-18T23:19:01.409Z,0.2
2019-03-18T23:24:01.508Z,0.1
2019-03-18T23:29:01.439Z,0.1
2019-03-18T23:34:01.555Z,0.1
2019-03-18T23:44:01.487Z,0.1
2019-03-18T23:50:01.408Z,0.2
2019-03-18T23:55:01.445Z,0.2
